• Join FlightAware (Why Join?)
  • Login
  • US Flag 
11:25PM EDT


 

Airport Tracker/Info


-or-


 

Live Flight TrackerFlight Track Log ✈ AIE846 ✈ 01-Jul-2014 ✈ CYZV - CYWK

Flight Track Log - Related Links

Times and Time Zones

All times are in EDT time to prevent confusion due to time zone crossing. See the AIE846 flight status page for this flight to view local times or setup timezone preferences in your user account.

Time Position Orientation Groundspeed Altitude Reporting Facility
EDT Latitude Longitude Course Direction KTS MPH feet Rate Location/Type
10:36AM 50.2667 -66.2833 342° North 140 161 3,000  Level Montreal Center
10:37AM 50.3000 -66.2833 360° North 160 184 4,100 1,200 Climbing Montreal Center
10:38AM 50.3500 -66.2667 12° North 180 207 5,500 1,380 Climbing Montreal Center
10:39AM 50.4000 -66.2833 348° North 180 207 6,900 1,320 Climbing Montreal Center
10:40AM 50.5709 -66.3292 355° North  Level FlightAware Approximate
10:40AM 50.4500 -66.2667 12° North 190 219 8,200  Level Montreal Center
10:41AM 50.5167 -66.2833 351° North 190 219 9,500 1,200 Climbing Montreal Center
10:42AM 50.5667 -66.3000 348° North 200 230 10,700 1,140 Climbing Montreal Center
10:43AM 50.6333 -66.3167 351° North 200 230 11,800 1,080 Climbing Montreal Center
10:44AM 50.6833 -66.3333 348° North 200 230 12,900 960 Climbing Montreal Center
10:45AM 50.7500 -66.3500 351° North 200 230 13,800 780 Climbing Montreal Center
10:46AM 50.8000 -66.3667 348° North 210 242 14,500 720 Climbing Montreal Center
10:47AM 50.8500 -66.3500 12° North 210 242 15,300 660 Climbing Montreal Center
10:48AM 50.9167 -66.3667 351° North 220 253 15,900 660 Climbing Montreal Center
10:49AM 50.9667 -66.3833 348° North 220 253 16,700 660 Climbing Montreal Center
10:50AM 51.0333 -66.3833 360° North 220 253 17,300 720 Climbing Montreal Center
10:51AM 51.0833 -66.4000 348° North 220 253 18,200 840 Climbing Montreal Center
10:52AM 51.1667 -66.4167 353° North 220 253 19,000 360 Climbing Montreal Center
10:53AM 51.2167 -66.4333 348° North 220 253 19,000  Level Montreal Center
10:54AM 51.2833 -66.4500 351° North 230 265 19,000  Level Montreal Center
10:55AM 51.3500 -66.4667 351° North 240 276 19,000  Level Montreal Center
10:56AM 51.4167 -66.4667 360° North 250 288 19,000  Level Montreal Center
10:57AM 51.4833 -66.4833 351° North 260 299 19,000 -300 Level Montreal Center
10:58AM 51.5667 -66.5000 353° North 260 299 18,500 -660 Descending Montreal Center
10:59AM 51.6500 -66.5333 346° North 280 322 17,700 -660 Descending Montreal Center
11:00AM 51.7333 -66.5500 353° North 290 334 17,200 -600 Descending Montreal Center
11:01AM 51.8167 -66.5500 360° North 290 334 16,600 -600 Descending Montreal Center
11:02AM 51.8833 -66.6000 335° Northwest 300 345 16,000 -780 Descending Montreal Center
11:03AM 51.9833 -66.6000 360° North 300 345 15,100 -900 Descending Montreal Center
11:04AM 52.0500 -66.6167 351° North 300 345 14,300 -840 Descending Montreal Center
11:06AM 52.1483 -66.6575 346° North  Level FlightAware Approximate
11:13AM 52.5656 -66.7676 352° North  Level FlightAware Approximate
11:14AM 52.6252 -66.7815 352° North  Level FlightAware Approximate
11:15AM 52.6850 -66.7936 353° North  Level FlightAware Approximate
11:16AM 52.7449 -66.8056 353° North  Level FlightAware Approximate
11:17AM 52.8047 -66.8176 353° North  Level FlightAware Approximate
11:18AM 52.8645 -66.8296 353° North  Level FlightAware Approximate
11:19AM 52.9241 -66.8435 351° North  Level FlightAware Approximate
11:20AM 52.9167 -66.8500 180° South  Level FlightAware Approximate
11:21AM 52.9219 -66.8644 180° South  Level Estimated
11:22AM 52.9219 -66.8644 180° South  Level Estimated
11:23AM 52.9219 -66.8644 180° South  Level Estimated